Pagrindinis puslapis
METAR-TAF:

METAR-TAF

Oro uostai :

Kota Kinabalu, Malaizija

platuma: 05-56N, ilguma: 116-03E, Aukštis: 3 m

Dabartinis oras

Ataskaita buvo paskelbta 37 minutes, ne 03:30 UTC
Vėjas 4 kt iš Vakarų/Šiaurės Vakarų, svyruoja nuo Vakarų/Pietvakarių ir Šiaurės/Šiaurės Rytų
Temperatūra 31°C
Drėgmė 71%
Slėgis 1009 hPa
Matomumas 10 km arba daugiau
Mažai debesys ne aukštis 1500 ft

METAR: WBKK 290330Z 30004KT 240V020 9999 FEW015 31/25 Q1009 NOSIG

Laikas: 12:07 (04:07 UTC)

Prognozė

Ataskaita buvo paskelbta 5 valandos ir 7 minutes, ne 23:00 UTC
Prognozė galioja nuo 29 metu 00 UTC su 01 metu 00 UTC
Vėjas 7 kt iš Šiaurės Vakarų
Matomumas 10 km arba daugiau
Mažai debesys ne aukštis 1400 ft
Tapsmas
nuo 29 metu 14 UTC su 29 metu 16 UTC
Vėjas 5 kt iš Rytų/Pietryčių

TAF: WBKK 282300Z 2900/0100 32007KT 9999 FEW014 BECMG 2914/2916 11005KT

Orai ataskaitas ir orų prognozės (METAR, TAF).

turimą stotys yra geltonos ir raudonos taškus žemėlapyje.

Perkelti pele per norėdami pamatyti stoties vardą.

Tada spustelėkite, norėdami matyti oro stebėjimo ir prognozės.

Norėdami pakeisti žemėlapį: spustelėkite ant žalios mygtukų su juodo kryžiaus žemyn,; žalią mygtuką su brūkšneliu, jei norite nutolinti; arba žalių rodyklių gretimoms žemėlapius.


METAR-TAF: